This is the latest recevied weather packets stored in our database for station/object N2UFM. If no packets are shown the sender has not sent any weather packets the latest 1 day(s).
| Time | Temp. | Humidity | Pressure | Rain* | Wind** | Luminosity | Snow |
|---|---|---|---|---|---|---|---|
| 1778015348 | 29.44° C | 34% | 1008.8 hPa | 0 mm | 1.34 m/s, 217° | - | - |
| 1778015048 | 29.44° C | 34% | 1008.6 hPa | 0 mm | 3.13 m/s, 250° | - | - |
| 1778014748 | 29.44° C | 34% | 1008.6 hPa | 0 mm | 2.68 m/s, 225° | - | - |
| 1778014447 | 29.44° C | 34% | 1008.5 hPa | 0 mm | 1.34 m/s, 262° | - | - |
| 1778014147 | 29.44° C | 34% | 1008.6 hPa | 0 mm | 2.68 m/s, 230° | - | - |
| 1778013847 | 29.44° C | 33% | 1008.6 hPa | 0 mm | 3.13 m/s, 274° | - | - |
| 1778013547 | 29.44° C | 33% | 1008.7 hPa | 0 mm | 2.68 m/s, 242° | - | - |
| 1778013247 | 30° C | 33% | 1008.8 hPa | 0 mm | 1.34 m/s, 235° | - | - |
| 1778012947 | 30° C | 32% | 1008.9 hPa | 0 mm | 2.68 m/s, 223° | - | - |
| 1778012647 | 30° C | 32% | 1008.8 hPa | 0 mm | 1.34 m/s, 233° | - | - |
| 1778012346 | 30° C | 32% | 1008.8 hPa | 0 mm | 3.13 m/s, 228° | - | - |
| 1778012046 | 29.44° C | 32% | 1008.9 hPa | 0 mm | 1.34 m/s, 230° | - | - |
| 1778011746 | 30° C | 32% | 1009 hPa | 0 mm | 0.89 m/s, 166° | - | - |
| 1778011446 | 30° C | 32% | 1008.8 hPa | 0 mm | 2.24 m/s, 242° | - | - |
| 1778011146 | 30° C | 32% | 1008.8 hPa | 0 mm | 2.24 m/s, 251° | - | - |
| 1778010846 | 30° C | 33% | 1008.9 hPa | 0 mm | 2.24 m/s, 219° | - | - |
| 1778010546 | 30° C | 32% | 1009 hPa | 0 mm | 2.24 m/s, 220° | - | - |
| 1778010245 | 30° C | 32% | 1009.1 hPa | 0 mm | 2.24 m/s, 265° | - | - |
| 1778009945 | 30° C | 32% | 1009.1 hPa | 0 mm | 0.89 m/s, 238° | - | - |
| 1778009645 | 30° C | 32% | 1009.1 hPa | 0 mm | 2.24 m/s, 235° | - | - |
| 1778009345 | 30° C | 32% | 1009.3 hPa | 0 mm | 1.34 m/s, 217° | - | - |
| 1778009045 | 30° C | 33% | 1009.3 hPa | 0 mm | 1.34 m/s, 244° | - | - |
| 1778008745 | 30° C | 33% | 1009.5 hPa | 0 mm | 2.24 m/s, 251° | - | - |
| 1778008444 | 30° C | 34% | 1009.6 hPa | 0 mm | 2.24 m/s, 221° | - | - |
| 1778008144 | 30° C | 34% | 1009.6 hPa | 0 mm | 2.68 m/s, 218° | - | - |
* Rain latest hour (hover to see other rain measurements)
** Current wind speed in m/s (hover to see current wind gust speed)